Impacts TAF Board INFO
FOR SITUATIONAL AWARENESS. NOT TO BE USED FOR FLIGHT PLANNING PURPOSES.
IDs:

KSTL - St Louis/Lambert Int, MO, US

Issued at 0256 UTC 22 Jun 2018
Updated at 0320 UTC 22 Jun 2018
Potential Impact None Slight Moderate High
Time<<22/16Z 22/17Z 22/18Z 22/19Z 22/20Z 22/21Z 22/22Z 22/23Z 23/00Z 23/01Z 23/02Z 23/03Z 23/04Z>>
Type PRVL PRVL PRVL PRVL PRVL PRVL PRVL PRVL PRVL PRVL PRVL PRVL PRVL
VIS >6 6 6 6 6 6 6 6 6 6 >6 >6 >6
CIG 15 25 25 25 25 25 35 35 35 35 30 30 30
Cover OVC OVC OVC OVC OVC OVC OVC OVC OVC OVC BKN BKN BKN
FltCat MVFR MVFR MVFR MVFR MVFR MVFR VFR VFR VFR VFR MVFR MVFR MVFR
WX VCSH -SHRA -SHRA -SHRA -SHRA -SHRA -SHRA -SHRA -SHRA -SHRA -- -- --
WDir 290 290 290 290 290 290 310 310 310 310 310 310 310
WSpd 4 8 8 8 8 8 9 9 9 9 6 6 6
WGst -- -- -- -- -- -- -- -- -- -- -- -- --

Raw TAF
KSTL 220256Z 2203/2306 27008KT P6SM VCSH BKN060
  TEMPO 2203/2206 -RA BKN025
  FM220900 29004KT P6SM VCSH OVC015
  FM221700 29008KT 6SM -SHRA OVC025
  FM222200 31009KT 6SM -SHRA OVC035
  FM230200 31006KT P6SM BKN030


METAR Board
Radar Display
Forecast Discussion

FOR SITUATIONAL AWARENESS. NOT TO BE USED FOR FLIGHT PLANNING PURPOSES.